Time;durP1;ratioP1;P1;durP2;ratioP2;P2;SDS_P1;SDS_P2;PMS_P1;PMS_P2;Temp;Humidity;BMP_temperature;BMP_pressure;BME280_temperature;BME280_humidity;BME280_pressure;Samples;Min_cycle;Max_cycle;Signal;HPM_P1;HPM_P2
2022/09/11 00:01:34;;;;;;;2.47;1.30;;;;;;;16.18;100.00;99956.28;5032471;28;20401;-73
2022/09/11 00:04:03;;;;;;;3.88;1.20;;;;;;;16.11;100.00;99954.25;5032632;28;20052;-72
2022/09/11 00:06:33;;;;;;;2.63;1.15;;;;;;;15.96;100.00;99957.31;5032361;28;20050;-72
2022/09/11 00:09:04;;;;;;;1.65;1.00;;;;;;;15.90;100.00;99952.47;5032761;28;20045;-72
2022/09/11 00:11:35;;;;;;;3.45;1.20;;;;;;;15.96;100.00;99951.94;5032179;28;20179;-74
2022/09/11 00:14:03;;;;;;;2.38;1.10;;;;;;;15.93;100.00;99960.28;5036658;28;20050;-73
2022/09/11 00:16:34;;;;;;;1.75;1.20;;;;;;;15.86;100.00;99958.25;5036212;28;20108;-73
2022/09/11 00:19:08;;;;;;;2.42;1.15;;;;;;;15.83;100.00;99956.69;5036376;28;20045;-73
2022/09/11 00:21:38;;;;;;;3.60;0.98;;;;;;;15.87;100.00;99952.75;5035951;28;20041;-73
2022/09/11 00:24:08;;;;;;;3.42;1.40;;;;;;;15.84;100.00;99947.63;5034987;28;20053;-72
2022/09/11 00:26:37;;;;;;;1.95;0.93;;;;;;;15.81;100.00;99947.88;5034726;28;20053;-73
2022/09/11 00:29:05;;;;;;;1.95;1.00;;;;;;;16.00;100.00;99952.50;5036194;28;20487;-73
2022/09/11 00:31:34;;;;;;;2.63;1.10;;;;;;;15.86;100.00;99948.34;5035497;28;20484;-73
2022/09/11 00:34:02;;;;;;;2.22;1.13;;;;;;;15.69;100.00;99943.56;5035848;28;20041;-74
2022/09/11 00:36:31;;;;;;;1.73;0.90;;;;;;;15.75;100.00;99951.13;5035436;28;20465;-74
2022/09/11 00:39:01;;;;;;;2.58;0.93;;;;;;;15.80;100.00;99946.19;5034643;28;20504;-73
2022/09/11 00:41:32;;;;;;;2.35;1.23;;;;;;;15.87;100.00;99944.69;5035677;28;20072;-74
2022/09/11 00:44:02;;;;;;;2.50;0.90;;;;;;;15.73;100.00;99948.56;5035957;28;20079;-74
2022/09/11 00:46:41;;;;;;;1.83;0.95;;;;;;;15.68;100.00;99952.63;5035636;28;20120;-76
2022/09/11 00:49:17;;;;;;;1.23;0.70;;;;;;;15.71;100.00;99945.13;5035503;28;20179;-74
2022/09/11 00:51:49;;;;;;;2.33;1.00;;;;;;;15.68;100.00;99952.63;5035524;28;20065;-73
2022/09/11 00:54:25;;;;;;;3.17;1.20;;;;;;;15.60;100.00;99947.03;5035653;28;20045;-73
2022/09/11 00:56:57;;;;;;;1.33;0.85;;;;;;;15.54;100.00;99947.53;5035578;28;20041;-73
2022/09/11 00:59:27;;;;;;;1.80;1.00;;;;;;;15.55;100.00;99954.66;5035666;28;20045;-74
2022/09/11 01:01:55;;;;;;;1.00;0.85;;;;;;;15.52;100.00;99955.75;5035273;28;20096;-73
2022/09/11 01:04:24;;;;;;;2.15;1.02;;;;;;;15.53;100.00;99944.00;5035490;28;20456;-73
2022/09/11 01:06:55;;;;;;;2.38;0.80;;;;;;;15.51;100.00;99947.81;5035178;28;20049;-75
2022/09/11 01:09:27;;;;;;;1.63;1.00;;;;;;;15.48;100.00;99951.63;5035356;28;20099;-75
2022/09/11 01:12:03;;;;;;;2.17;1.00;;;;;;;15.38;100.00;99950.69;5034928;28;20041;-75
2022/09/11 01:14:41;;;;;;;1.63;0.80;;;;;;;15.37;100.00;99949.00;5035090;28;20108;-75
2022/09/11 01:17:21;;;;;;;1.83;0.98;;;;;;;15.35;100.00;99943.75;5035283;28;20046;-74
2022/09/11 01:20:11;;;;;;;3.92;1.00;;;;;;;15.38;100.00;99945.31;5034862;28;20044;-74
2022/09/11 01:22:52;;;;;;;1.83;0.98;;;;;;;15.36;100.00;99942.78;5034648;28;20048;-74
2022/09/11 01:25:27;;;;;;;0.93;0.73;;;;;;;15.33;100.00;99939.47;5034293;28;20412;-74
2022/09/11 01:27:59;;;;;;;1.50;0.90;;;;;;;15.35;100.00;99929.47;5035163;28;20045;-74
2022/09/11 01:30:32;;;;;;;1.60;1.00;;;;;;;15.37;100.00;99938.25;5034967;28;20488;-74
2022/09/11 01:33:14;;;;;;;2.40;0.83;;;;;;;15.39;100.00;99925.53;5034716;28;20512;-74
2022/09/11 01:35:53;;;;;;;1.92;0.85;;;;;;;15.37;100.00;99927.50;5034643;28;20072;-73
2022/09/11 01:38:28;;;;;;;1.05;0.80;;;;;;;15.33;100.00;99918.81;5034765;28;20072;-73
2022/09/11 01:41:00;;;;;;;3.70;1.10;;;;;;;15.21;100.00;99911.81;5034726;28;20046;-73
2022/09/11 01:43:34;;;;;;;2.57;0.80;;;;;;;15.19;100.00;99929.91;5034831;28;20056;-76
2022/09/11 01:46:07;;;;;;;1.63;0.85;;;;;;;15.21;100.00;99924.41;5034471;28;20120;-74
2022/09/11 01:48:44;;;;;;;3.10;1.13;;;;;;;15.15;100.00;99926.63;5034348;28;20129;-75
2022/09/11 01:51:20;;;;;;;2.33;1.10;;;;;;;15.18;100.00;99928.19;5034393;28;20048;-74
2022/09/11 01:53:51;;;;;;;1.42;0.88;;;;;;;15.13;100.00;99923.19;5033863;28;20120;-74
2022/09/11 01:56:23;;;;;;;2.90;1.10;;;;;;;15.06;100.00;99923.88;5034742;28;20054;-74
2022/09/11 01:58:58;;;;;;;1.83;1.02;;;;;;;15.04;100.00;99925.81;5034260;28;20049;-75
2022/09/11 02:01:31;;;;;;;1.20;1.00;;;;;;;15.10;100.00;99922.63;5034436;28;20050;-74
2022/09/11 02:04:06;;;;;;;2.78;1.10;;;;;;;15.06;100.00;99918.50;5034000;28;20046;-75
2022/09/11 02:06:39;;;;;;;2.80;0.90;;;;;;;15.06;100.00;99924.72;5034454;28;20399;-75
2022/09/11 02:09:11;;;;;;;3.10;1.10;;;;;;;14.83;100.00;99907.81;5034445;28;20049;-73
2022/09/11 02:11:42;;;;;;;1.73;0.90;;;;;;;14.99;100.00;99918.16;5033851;28;20408;-73
2022/09/11 02:14:19;;;;;;;2.33;1.00;;;;;;;14.97;100.00;99912.06;5033894;28;20095;-73
2022/09/11 02:16:52;;;;;;;2.58;1.17;;;;;;;14.99;100.00;99906.56;5033875;28;20056;-73
2022/09/11 02:19:24;;;;;;;1.73;0.90;;;;;;;14.96;100.00;99909.47;5034154;28;20103;-72
2022/09/11 02:21:52;;;;;;;2.20;0.88;;;;;;;14.93;100.00;99913.28;5033894;28;20046;-72
2022/09/11 02:24:22;;;;;;;5.22;1.00;;;;;;;14.92;100.00;99910.72;5033820;28;20051;-71
2022/09/11 02:26:54;;;;;;;2.65;1.05;;;;;;;14.94;100.00;99914.13;5033872;28;20033;-72
2022/09/11 02:29:25;;;;;;;3.25;1.20;;;;;;;14.96;100.00;99909.47;5033700;28;20057;-72
2022/09/11 02:31:55;;;;;;;1.73;1.00;;;;;;;14.96;100.00;99910.38;5033592;28;20053;-72
2022/09/11 02:34:26;;;;;;;3.17;1.00;;;;;;;14.88;100.00;99905.63;5033848;28;20461;-72
2022/09/11 02:37:07;;;;;;;1.92;0.75;;;;;;;14.86;100.00;99907.59;5033424;28;20546;-72
2022/09/11 02:39:59;;;;;;;2.47;0.93;;;;;;;14.72;100.00;99899.81;5033679;28;20048;-72
2022/09/11 02:42:38;;;;;;;3.90;1.08;;;;;;;14.68;100.00;99903.75;5033592;28;20116;-72
2022/09/11 02:45:22;;;;;;;1.95;0.90;;;;;;;14.68;100.00;99909.13;5033968;28;20045;-72
2022/09/11 02:48:01;;;;;;;2.38;1.00;;;;;;;14.64;100.00;99910.31;5033201;28;20048;-73
2022/09/11 02:50:34;;;;;;;1.65;0.93;;;;;;;14.76;100.00;99908.44;5033563;28;20041;-73
2022/09/11 02:53:10;;;;;;;1.63;0.90;;;;;;;14.88;100.00;99902.94;5033020;28;20089;-73
2022/09/11 02:55:49;;;;;;;2.90;0.90;;;;;;;14.72;100.00;99912.38;5033499;28;20049;-78
2022/09/11 02:58:22;;;;;;;2.47;1.00;;;;;;;14.64;100.00;99915.69;5033297;28;20400;-73
2022/09/11 03:00:52;;;;;;;1.70;0.80;;;;;;;14.69;100.00;99910.81;5033371;28;20373;-73
2022/09/11 03:03:20;;;;;;;1.92;0.80;;;;;;;14.60;100.00;99917.78;5033150;28;20037;-73
2022/09/11 03:05:48;;;;;;;2.25;1.00;;;;;;;14.80;100.00;99910.78;5032965;28;20045;-72
2022/09/11 03:08:17;;;;;;;3.40;1.10;;;;;;;14.82;100.00;99922.22;5032936;28;20046;-72
2022/09/11 03:10:46;;;;;;;2.30;0.90;;;;;;;14.87;100.00;99917.34;5031832;28;20164;-72
2022/09/11 03:13:14;;;;;;;2.50;0.90;;;;;;;14.78;100.00;99919.94;5033165;28;20373;-70
2022/09/11 03:15:43;;;;;;;1.38;0.70;;;;;;;14.68;100.00;99925.22;5032703;28;20079;-73
2022/09/11 03:18:14;;;;;;;1.90;1.00;;;;;;;14.64;100.00;99929.13;5033172;28;20052;-73
2022/09/11 03:20:45;;;;;;;1.55;0.85;;;;;;;14.49;100.00;99928.56;5032958;28;20049;-74
2022/09/11 03:23:14;;;;;;;2.22;0.98;;;;;;;14.55;100.00;99924.50;5033031;28;20103;-74
2022/09/11 03:25:42;;;;;;;2.70;1.00;;;;;;;14.55;100.00;99919.97;5032857;28;20073;-74
2022/09/11 03:28:10;;;;;;;1.92;0.90;;;;;;;14.56;100.00;99912.78;5032784;28;20079;-74
2022/09/11 03:30:40;;;;;;;2.28;1.00;;;;;;;14.47;100.00;99921.59;5033206;28;20091;-74
2022/09/11 03:33:08;;;;;;;3.35;1.20;;;;;;;14.62;100.00;99914.97;5033106;28;20049;-74
2022/09/11 03:35:38;;;;;;;3.05;1.00;;;;;;;14.62;100.00;99912.28;5032793;28;20120;-74
2022/09/11 03:38:06;;;;;;;1.50;0.90;;;;;;;14.57;100.00;99919.84;5032826;28;20054;-74
2022/09/11 03:40:34;;;;;;;2.50;0.90;;;;;;;14.58;100.00;99911.69;5032952;28;20049;-74
2022/09/11 03:43:02;;;;;;;2.85;1.00;;;;;;;14.66;100.00;99905.69;5032485;28;20049;-74
2022/09/11 03:45:31;;;;;;;2.15;0.95;;;;;;;14.65;100.00;99909.34;5032752;28;20103;-73
2022/09/11 03:48:00;;;;;;;1.73;0.90;;;;;;;14.58;100.00;99911.69;5033640;28;20378;-73
2022/09/11 03:50:28;;;;;;;2.58;1.00;;;;;;;14.68;100.00;99906.44;5036792;28;20095;-73
2022/09/11 03:52:58;;;;;;;1.75;0.88;;;;;;;14.69;100.00;99910.81;5036548;28;20057;-71
2022/09/11 03:55:26;;;;;;;2.55;0.82;;;;;;;14.66;100.00;99903.00;5036818;28;20051;-71
2022/09/11 03:57:54;;;;;;;4.40;0.93;;;;;;;14.66;100.00;99903.00;5036307;28;20041;-73
2022/09/11 04:00:22;;;;;;;2.10;0.93;;;;;;;14.71;100.00;99902.63;5036508;28;20045;-72
2022/09/11 04:02:50;;;;;;;2.15;1.00;;;;;;;14.69;100.00;99900.09;5036504;28;20045;-72
2022/09/11 04:05:19;;;;;;;4.63;1.15;;;;;;;14.79;100.00;99910.91;5035637;28;20053;-72
2022/09/11 04:07:47;;;;;;;1.33;0.88;;;;;;;14.83;100.00;99906.97;5036443;28;20049;-72
2022/09/11 04:10:18;;;;;;;2.97;0.95;;;;;;;14.86;100.00;99918.34;5036566;28;20115;-72
2022/09/11 04:12:46;;;;;;;2.38;0.75;;;;;;;14.93;100.00;99915.13;5038169;28;20087;-72
2022/09/11 04:15:15;;;;;;;2.22;0.90;;;;;;;14.97;100.00;99913.91;5038598;28;20447;-73
2022/09/11 04:17:43;;;;;;;2.90;0.98;;;;;;;15.00;100.00;99919.00;5039451;28;20046;-75
2022/09/11 04:20:12;;;;;;;1.90;0.90;;;;;;;14.99;100.00;99917.31;5037893;28;20041;-72
2022/09/11 04:22:40;;;;;;;1.67;0.80;;;;;;;15.10;100.00;99914.56;5036266;28;20450;-72
2022/09/11 04:25:09;;;;;;;3.08;1.00;;;;;;;15.15;100.00;99923.06;5034826;28;20084;-71
2022/09/11 04:27:39;;;;;;;2.40;0.80;;;;;;;15.19;100.00;99921.84;5035792;28;20053;-72
2022/09/11 04:30:09;;;;;;;1.80;0.90;;;;;;;15.33;100.00;99926.03;5035652;28;20057;-71
2022/09/11 04:32:37;;;;;;;0.88;0.60;;;;;;;15.26;100.00;99927.56;5036063;28;20052;-71
2022/09/11 04:35:06;;;;;;;1.73;0.80;;;;;;;15.20;100.00;99920.84;5035779;28;20049;-71
2022/09/11 04:37:35;;;;;;;0.80;0.60;;;;;;;15.38;100.00;99921.13;5034641;28;20045;-72
2022/09/11 04:40:03;;;;;;;2.40;0.80;;;;;;;15.32;100.00;99914.44;5035594;28;20049;-72
2022/09/11 04:42:31;;;;;;;1.42;0.90;;;;;;;15.37;100.00;99909.53;5035647;28;20052;-73
2022/09/11 04:45:01;;;;;;;1.58;0.80;;;;;;;15.50;100.00;99916.53;5035591;28;20050;-73
2022/09/11 04:47:29;;;;;;;0.93;0.70;;;;;;;15.53;100.00;99906.38;5036086;28;20124;-73
2022/09/11 04:49:58;;;;;;;2.13;0.90;;;;;;;15.49;100.00;99910.31;5035342;28;20073;-73
2022/09/11 04:52:26;;;;;;;1.95;0.85;;;;;;;15.47;100.00;99896.16;5035593;28;20054;-74
2022/09/11 04:54:54;;;;;;;2.05;0.98;;;;;;;15.44;100.00;99897.28;5033788;28;20519;-74
2022/09/11 04:57:23;;;;;;;2.05;0.75;;;;;;;15.36;100.00;99891.72;5035587;28;20076;-73
2022/09/11 04:59:51;;;;;;;1.38;0.77;;;;;;;15.49;100.00;99893.34;5034972;28;20056;-73
2022/09/11 05:02:21;;;;;;;2.03;0.85;;;;;;;15.47;100.00;99893.47;5035477;28;20045;-73
2022/09/11 05:04:49;;;;;;;1.25;0.98;;;;;;;15.39;100.00;99898.66;5035118;28;20091;-73
2022/09/11 05:07:18;;;;;;;1.30;0.80;;;;;;;15.41;100.00;99897.53;5035282;28;20052;-71
2022/09/11 05:09:46;;;;;;;3.08;0.77;;;;;;;15.54;100.00;99904.53;5035276;28;20048;-77
2022/09/11 05:12:14;;;;;;;3.13;1.00;;;;;;;15.51;100.00;99904.81;5035341;28;20439;-71
2022/09/11 05:14:42;;;;;;;1.95;0.75;;;;;;;15.39;100.00;99910.25;5035186;28;20088;-73
2022/09/11 05:17:12;;;;;;;3.47;1.00;;;;;;;15.37;100.00;99906.84;5034697;28;20080;-73
2022/09/11 05:19:42;;;;;;;1.77;0.80;;;;;;;15.50;100.00;99905.78;5034908;28;20045;-73
2022/09/11 05:22:10;;;;;;;2.47;0.90;;;;;;;15.36;100.00;99910.53;5034759;28;20046;-73
2022/09/11 05:24:39;;;;;;;3.35;0.90;;;;;;;15.31;100.00;99906.50;5034894;28;20072;-72
2022/09/11 05:27:08;;;;;;;2.03;0.80;;;;;;;15.27;100.00;99911.31;5034719;28;20099;-74
2022/09/11 05:29:37;;;;;;;3.13;1.10;;;;;;;15.32;100.00;99908.22;5033498;28;20053;-74
2022/09/11 05:32:05;;;;;;;1.70;1.00;;;;;;;15.30;100.00;99921.78;5034535;28;20115;-74
2022/09/11 05:34:34;;;;;;;2.28;0.95;;;;;;;15.23;100.00;99915.22;5034678;28;20087;-73
2022/09/11 05:37:04;;;;;;;2.92;1.00;;;;;;;15.27;100.00;99922.06;5033355;28;20103;-73
2022/09/11 05:39:32;;;;;;;1.85;0.90;;;;;;;15.37;100.00;99911.38;5033596;28;20049;-73
2022/09/11 05:42:00;;;;;;;2.03;0.93;;;;;;;15.40;100.00;99917.31;5034648;28;20052;-74
2022/09/11 05:44:29;;;;;;;2.88;1.20;;;;;;;15.43;100.00;99919.75;5033222;28;20128;-74
2022/09/11 05:46:58;;;;;;;2.05;1.05;;;;;;;15.50;100.00;99921.91;5034409;28;20103;-73
2022/09/11 05:49:26;;;;;;;3.17;1.13;;;;;;;15.60;100.00;99923.72;5034664;28;20080;-73
2022/09/11 05:52:01;;;;;;;2.58;1.05;;;;;;;15.63;100.00;99915.41;5032747;28;20068;-73
2022/09/11 05:54:31;;;;;;;3.85;0.90;;;;;;;15.72;100.00;99922.63;5033294;28;20108;-73
2022/09/11 05:57:01;;;;;;;1.60;0.82;;;;;;;15.84;100.00;99915.38;5034095;28;20053;-73
2022/09/11 05:59:35;;;;;;;2.28;1.08;;;;;;;16.02;100.00;99926.34;5034457;28;20377;-73
2022/09/11 06:02:04;;;;;;;1.25;0.80;;;;;;;16.12;100.00;99919.19;5034207;28;20042;-73
2022/09/11 06:04:33;;;;;;;1.60;0.90;;;;;;;16.26;100.00;99921.47;5033007;28;20115;-73
2022/09/11 06:07:01;;;;;;;1.67;1.13;;;;;;;16.34;100.00;99918.13;5032945;28;20500;-76
2022/09/11 06:09:30;;;;;;;2.10;0.93;;;;;;;16.48;100.00;99925.78;5033532;28;20068;-75
2022/09/11 06:11:59;;;;;;;1.48;1.00;;;;;;;16.64;100.00;99922.56;5032546;28;20132;-73
2022/09/11 06:14:28;;;;;;;1.02;0.68;;;;;;;16.78;100.00;99918.66;5033766;28;20424;-73
2022/09/11 06:16:56;;;;;;;1.75;0.88;;;;;;;16.93;100.00;99916.41;5033563;28;20474;-74
2022/09/11 06:19:24;;;;;;;1.65;0.85;;;;;;;16.98;100.00;99933.84;5033787;28;20506;-72
2022/09/11 06:21:53;;;;;;;1.30;0.80;;;;;;;17.10;100.00;99929.19;5033609;28;20503;-72
2022/09/11 06:24:21;;;;;;;2.60;0.93;;;;;;;17.22;100.00;99921.78;5049170;28;20049;-75
2022/09/11 06:26:50;;;;;;;2.53;1.00;;;;;;;17.27;100.00;99928.44;5032424;28;20046;-75
2022/09/11 06:29:18;;;;;;;0.95;0.70;;;;;;;17.41;100.00;99940.66;5033319;28;20048;-77
2022/09/11 06:31:50;;;;;;;1.27;0.63;;;;;;;17.57;100.00;99935.53;5033243;28;20045;-75
2022/09/11 06:34:19;;;;;;;1.52;0.80;;;;;;;17.48;100.00;99941.78;5032730;28;20053;-73
2022/09/11 06:36:47;;;;;;;1.65;0.80;;;;;;;17.89;100.00;99934.34;5034753;28;20052;-71
2022/09/11 06:39:21;;;;;;;2.20;0.90;;;;;;;18.08;100.00;99945.06;5035515;28;20133;-74
2022/09/11 06:41:52;;;;;;;2.60;0.77;;;;;;;18.59;100.00;99939.13;5033789;28;20037;-78
2022/09/11 06:44:21;;;;;;;2.90;1.00;;;;;;;18.63;100.00;99958.63;5032716;28;20108;-86
2022/09/11 06:46:49;;;;;;;2.05;0.90;;;;;;;18.68;100.00;99945.50;5032944;28;20050;-85
2022/09/11 06:49:18;;;;;;;1.55;0.88;;;;;;;18.71;100.00;99936.25;5034044;28;20042;-85
2022/09/11 06:51:46;;;;;;;2.10;0.80;;;;;;;18.88;96.54;99935.44;5032578;28;20095;-83
2022/09/11 06:54:15;;;;;;;1.95;0.90;;;;;;;18.83;97.69;99940.47;5033195;28;20056;-82
2022/09/11 06:56:44;;;;;;;2.40;0.73;;;;;;;18.40;99.92;99943.78;5033280;28;20045;-75
2022/09/11 06:59:14;;;;;;;2.85;1.08;;;;;;;18.28;100.00;99941.28;5032523;28;20046;-76
2022/09/11 07:01:43;;;;;;;2.35;0.98;;;;;;;18.31;100.00;99940.13;5032025;28;20132;-78
2022/09/11 07:04:11;;;;;;;2.42;1.05;;;;;;;18.29;100.00;99936.75;5032909;28;20132;-79
2022/09/11 07:06:39;;;;;;;2.17;1.02;;;;;;;18.42;100.00;99941.78;5031851;28;20061;-79
2022/09/11 07:09:09;;;;;;;1.85;1.05;;;;;;;18.21;100.00;99940.19;5033249;28;20089;-79
2022/09/11 07:11:42;;;;;;;2.20;1.02;;;;;;;18.42;100.00;99941.78;5031907;28;20053;-76
2022/09/11 07:14:10;;;;;;;1.67;0.90;;;;;;;18.39;100.00;99942.94;5033121;28;20531;-75
2022/09/11 07:16:40;;;;;;;1.48;0.90;;;;;;;18.41;99.74;99940.94;5033249;28;20049;-76
2022/09/11 07:19:09;;;;;;;1.98;1.23;;;;;;;18.26;100.00;99937.91;5033035;28;20129;-72
2022/09/11 07:21:37;;;;;;;2.05;0.90;;;;;;;18.44;97.62;99935.25;5032128;28;20045;-72
2022/09/11 07:24:05;;;;;;;2.30;1.05;;;;;;;18.47;97.69;99923.28;5031548;28;20075;-74
2022/09/11 07:26:35;;;;;;;2.20;0.90;;;;;;;18.48;97.73;99927.69;5032971;28;20049;-77
2022/09/11 07:29:03;;;;;;;3.55;1.17;;;;;;;18.53;97.61;99928.09;5032573;28;20096;-75
2022/09/11 07:31:33;;;;;;;1.67;0.98;;;;;;;18.51;96.24;99938.19;5032967;28;20092;-73
2022/09/11 07:34:03;;;;;;;2.15;0.77;;;;;;;18.28;97.65;99933.19;5031673;28;20053;-75
2022/09/11 07:36:33;;;;;;;2.83;1.05;;;;;;;18.59;96.46;99935.59;5033011;28;20041;-73
2022/09/11 07:39:02;;;;;;;1.80;1.00;;;;;;;18.78;91.12;99931.94;5031432;28;20068;-74
2022/09/11 07:41:30;;;;;;;3.42;0.93;;;;;;;18.64;92.59;99930.59;5032733;28;20045;-73
2022/09/11 07:44:00;;;;;;;1.63;0.80;;;;;;;18.29;95.98;99929.50;5031344;28;20112;-74
2022/09/11 07:46:30;;;;;;;1.85;0.85;;;;;;;18.23;95.73;99937.31;5033049;28;20128;-73
2022/09/11 07:48:58;;;;;;;2.67;1.35;;;;;;;17.95;98.52;99929.22;5031386;28;20049;-73
2022/09/11 07:51:28;;;;;;;1.75;1.10;;;;;;;18.11;97.26;99931.28;5032802;28;20049;-71
2022/09/11 07:53:58;;;;;;;1.55;0.90;;;;;;;18.08;100.00;99928.88;5032131;28;20089;-79
2022/09/11 07:56:28;;;;;;;3.70;1.20;;;;;;;18.23;96.13;99930.06;5027902;28;20111;-77
2022/09/11 07:58:57;;;;;;;2.13;1.13;;;;;;;18.41;97.59;99923.88;5031774;28;20053;-76
2022/09/11 08:01:28;;;;;;;2.80;1.10;;;;;;;18.44;95.92;99926.31;5032233;28;20038;-76
2022/09/11 08:03:59;;;;;;;1.80;0.82;;;;;;;18.60;93.07;99934.56;5032527;28;20408;-75
2022/09/11 08:06:30;;;;;;;4.18;1.30;;;;;;;18.58;93.00;99942.84;5031204;28;20056;-77
2022/09/11 08:09:00;;;;;;;3.63;1.30;;;;;;;18.67;92.03;99942.97;5031047;28;20457;-77
2022/09/11 08:11:30;;;;;;;3.28;1.20;;;;;;;18.72;94.31;99933.41;5032343;28;20051;-86
2022/09/11 08:13:58;;;;;;;3.13;1.15;;;;;;;18.85;90.98;99933.88;5032882;28;20447;-74
2022/09/11 08:16:28;;;;;;;2.05;1.02;;;;;;;18.98;92.58;99938.06;5032189;28;20081;-78
2022/09/11 08:18:57;;;;;;;1.50;1.00;;;;;;;19.06;90.24;99930.88;5032319;28;20073;-77
2022/09/11 08:21:26;;;;;;;2.05;0.98;;;;;;;18.80;91.87;99928.09;5030680;28;20157;-74
2022/09/11 08:23:56;;;;;;;2.78;1.10;;;;;;;18.97;91.66;99930.97;5032353;28;20050;-78
2022/09/11 08:26:26;;;;;;;3.30;1.20;;;;;;;19.11;92.07;99923.19;5030740;28;20054;-75
2022/09/11 08:28:56;;;;;;;0.98;0.73;;;;;;;19.25;89.87;99931.72;5032301;28;20572;-77
2022/09/11 08:31:26;;;;;;;2.25;1.13;;;;;;;19.59;86.85;99929.16;5030565;28;20053;-70
2022/09/11 08:33:55;;;;;;;3.47;1.02;;;;;;;19.62;86.56;99926.16;5034103;28;20046;-74
2022/09/11 08:36:24;;;;;;;2.35;1.10;;;;;;;19.74;82.74;99914.06;5035617;28;20084;-74
2022/09/11 08:38:53;;;;;;;2.63;0.93;;;;;;;19.96;81.33;99912.66;5035761;28;20047;-73
2022/09/11 08:41:32;;;;;;;2.15;1.20;;;;;;;19.66;82.38;99892.34;5035340;28;20046;-79
2022/09/11 08:44:04;;;;;;;1.73;0.85;;;;;;;19.60;82.88;99907.38;5029018;28;20053;-80
2022/09/11 08:46:37;;;;;;;4.10;1.33;;;;;;;19.91;81.03;99909.59;5017749;28;20060;-76
2022/09/11 08:49:15;;;;;;;1.50;0.75;;;;;;;20.35;77.82;99923.84;5034200;28;20132;-77
2022/09/11 08:51:45;;;;;;;2.40;1.00;;;;;;;20.32;76.86;99917.91;5023920;28;20056;-75
2022/09/11 08:54:26;;;;;;;2.03;0.90;;;;;;;20.49;75.67;99917.84;5030731;28;20115;-76
2022/09/11 08:57:15;;;;;;;2.60;0.80;;;;;;;20.47;76.21;99917.16;5026352;28;20088;-75
2022/09/11 08:59:59;;;;;;;1.90;1.00;;;;;;;20.80;74.14;99914.53;5033714;28;20046;-74
2022/09/11 09:02:40;;;;;;;;;;;;;;;20.64;72.12;99922.63;5034902;28;20061;-78
2022/09/11 09:05:20;;;;;;;2.00;1.10;;;;;;;20.72;72.30;99934.34;5014007;28;19926;-78
2022/09/11 09:08:01;;;;;;;1.92;1.02;;;;;;;20.81;73.19;99924.38;5026618;28;20103;-77
2022/09/11 09:10:43;;;;;;;2.53;1.20;;;;;;;20.61;72.08;99915.69;5017244;28;20506;-75
2022/09/11 09:13:25;;;;;;;2.47;1.00;;;;;;;20.46;72.08;99931.72;5028358;28;20038;-76
2022/09/11 09:16:01;;;;;;;2.40;1.15;;;;;;;20.26;74.07;99939.19;5026829;28;20088;-75
2022/09/11 09:18:34;;;;;;;2.25;1.10;;;;;;;20.16;76.39;99934.91;5018249;28;20038;-77
2022/09/11 09:21:07;;;;;;;2.33;1.02;;;;;;;19.88;75.18;99948.66;5029408;28;20042;-75
2022/09/11 09:23:41;;;;;;;1.48;0.98;;;;;;;19.79;77.04;99935.25;5024376;28;20057;-76
2022/09/11 09:26:17;;;;;;;1.48;1.00;;;;;;;19.82;76.46;99933.06;5025248;28;20045;-75
2022/09/11 09:28:50;;;;;;;1.67;1.00;;;;;;;19.77;77.70;99924.53;5033190;28;20052;-76
2022/09/11 09:31:21;;;;;;;2.95;1.10;;;;;;;20.05;78.49;99933.34;5025622;28;20050;-75
2022/09/11 09:33:56;;;;;;;2.95;1.05;;;;;;;20.33;76.26;99931.28;5026260;28;20045;-74
2022/09/11 09:36:30;;;;;;;3.40;1.00;;;;;;;20.22;76.93;99939.69;5016558;28;20062;-75
2022/09/11 09:38:59;;;;;;;2.90;1.30;;;;;;;19.86;78.08;99939.81;5019213;28;20069;-73
2022/09/11 09:41:50;;;;;;;1.70;1.00;;;;;;;19.78;79.11;99937.06;5034169;28;20049;-76
2022/09/11 09:44:29;;;;;;;3.05;1.27;;;;;;;19.81;79.18;99947.59;5016832;28;20531;-73
2022/09/11 09:46:58;;;;;;;2.05;1.20;;;;;;;19.96;77.59;99939.72;5017809;28;20073;-73
2022/09/11 09:49:30;;;;;;;3.05;1.08;;;;;;;20.00;77.35;99933.00;5033987;28;20514;-77
2022/09/11 09:52:02;;;;;;;1.63;1.08;;;;;;;19.82;77.40;99937.63;5021085;28;20050;-75
2022/09/11 09:54:35;;;;;;;2.35;0.90;;;;;;;19.79;76.05;99930.66;5030360;28;20041;-75
2022/09/11 09:57:06;;;;;;;3.30;1.02;;;;;;;20.01;75.40;99922.00;5022311;28;20045;-76
2022/09/11 09:59:41;;;;;;;1.95;1.00;;;;;;;20.16;74.77;99922.22;5022337;28;20076;-75
2022/09/11 10:02:11;;;;;;;1.65;1.00;;;;;;;20.16;73.02;99918.69;5033734;28;20466;-74
2022/09/11 10:04:39;;;;;;;2.33;0.98;;;;;;;20.44;74.29;99922.91;5017105;28;20092;-75
2022/09/11 10:07:10;;;;;;;1.38;0.93;;;;;;;20.43;72.15;99913.06;5028013;28;20045;-77
2022/09/11 10:09:47;;;;;;;1.33;0.95;;;;;;;20.71;69.94;99918.25;5022910;28;20069;-74
2022/09/11 10:12:18;;;;;;;4.35;1.27;;;;;;;20.75;70.33;99914.19;5032336;28;20049;-75
2022/09/11 10:14:55;;;;;;;2.55;1.00;;;;;;;20.92;68.10;99896.94;5017202;28;20041;-74
2022/09/11 10:17:31;;;;;;;2.40;0.90;;;;;;;21.05;67.14;99910.03;5033644;28;20041;-75
2022/09/11 10:20:20;;;;;;;1.20;0.75;;;;;;;21.19;66.28;99901.22;5019367;28;20493;-75
2022/09/11 10:22:50;;;;;;;1.15;0.73;;;;;;;21.16;65.74;99896.13;5030212;28;20381;-74
2022/09/11 10:25:21;;;;;;;1.63;0.80;;;;;;;21.35;66.63;99894.97;5020841;28;20045;-74
2022/09/11 10:28:00;;;;;;;2.20;1.00;;;;;;;21.49;64.86;99897.00;5013452;28;20049;-74
2022/09/11 10:30:33;;;;;;;2.20;0.88;;;;;;;21.56;64.67;99898.00;5029943;28;20072;-74
2022/09/11 10:33:03;;;;;;;;;;;;;;;21.11;65.12;99896.63;5028800;28;20073;-74
2022/09/11 10:35:35;;;;;;;1.65;0.77;;;;;;;21.02;65.45;99888.66;5021513;28;19927;-79
2022/09/11 10:38:17;;;;;;;2.42;0.98;;;;;;;21.04;64.49;99895.63;5019619;28;20066;-78
2022/09/11 10:41:06;;;;;;;3.28;1.08;;;;;;;20.80;66.73;99876.59;5014557;28;20057;-78
2022/09/11 10:43:47;;;;;;;2.10;0.90;;;;;;;20.88;66.64;99897.47;5032781;28;20072;-78
2022/09/11 10:46:38;;;;;;;1.73;0.90;;;;;;;20.74;68.31;99885.38;5032821;28;20042;-81
2022/09/11 10:49:17;;;;;;;1.45;0.90;;;;;;;20.83;68.39;99893.38;5016103;28;20095;-81
2022/09/11 10:52:02;;;;;;;2.80;1.17;;;;;;;20.72;69.26;99890.97;5029425;28;20171;-85
2022/09/11 10:54:54;;;;;;;1.23;0.80;;;;;;;20.68;69.04;99891.50;5034559;28;20050;-79
2022/09/11 10:57:27;;;;;;;1.65;0.90;;;;;;;20.35;70.58;99887.78;5027224;28;20049;-71
2022/09/11 11:00:02;;;;;;;2.63;1.10;;;;;;;19.99;73.72;99891.53;5032700;28;20041;-73
2022/09/11 11:02:34;;;;;;;2.28;0.90;;;;;;;20.05;74.76;99886.47;5032478;28;20108;-79
2022/09/11 11:05:06;;;;;;;2.53;1.00;;;;;;;20.01;75.10;99886.81;5025301;28;20404;-82
2022/09/11 11:08:05;;;;;;;4.07;1.05;;;;;;;20.21;74.07;99894.69;5011856;28;20086;-82
2022/09/11 11:10:55;;;;;;;2.95;1.42;;;;;;;20.35;73.29;99888.63;5010963;28;20054;-75
2022/09/11 11:13:38;;;;;;;2.72;1.17;;;;;;;20.36;73.33;99895.75;5009472;28;20142;-75
2022/09/11 11:16:14;;;;;;;2.08;1.10;;;;;;;20.48;72.90;99890.94;5022055;28;20041;-81
2022/09/11 11:19:06;;;;;;;2.70;1.02;;;;;;;20.68;71.66;99886.06;5033014;28;20072;-79
2022/09/11 11:21:51;;;;;;;2.30;1.10;;;;;;;20.72;71.60;99887.41;5027853;28;20157;-80
2022/09/11 11:24:36;;;;;;;3.92;1.02;;;;;;;20.70;70.61;99881.31;5033683;28;20042;-78
2022/09/11 11:27:33;;;;;;;1.70;1.10;;;;;;;20.92;70.21;99872.53;5030766;28;20064;-77
2022/09/11 11:30:09;;;;;;;2.47;0.90;;;;;;;21.00;68.61;99869.84;5031252;28;20095;-77
2022/09/11 11:33:04;;;;;;;4.03;1.15;;;;;;;20.95;67.55;99874.94;5031777;28;20491;-77
2022/09/11 11:35:43;;;;;;;1.98;1.13;;;;;;;20.90;64.89;99874.56;5031798;28;20049;-76
2022/09/11 11:38:19;;;;;;;1.73;1.00;;;;;;;21.09;64.88;99874.25;5045540;28;20069;-78
2022/09/11 11:40:52;;;;;;;2.35;1.20;;;;;;;21.21;63.63;99873.91;5049752;28;20089;-79
2022/09/11 11:43:26;;;;;;;2.35;1.10;;;;;;;21.10;65.44;99884.09;5054315;28;20045;-77
2022/09/11 11:46:00;;;;;;;1.77;1.05;;;;;;;21.04;66.23;99876.63;5069894;28;20052;-74
2022/09/11 11:48:37;;;;;;;2.13;1.33;;;;;;;20.91;67.89;99875.44;5052547;28;20054;-78
2022/09/11 11:51:12;;;;;;;1.73;1.08;;;;;;;20.97;67.02;99878.31;5054636;28;20025;-78
2022/09/11 11:53:48;;;;;;;3.20;1.30;;;;;;;21.12;67.67;99883.91;5055220;28;20054;-79